Aérodrome :
LOGIN :

S'inscrire | Disclaimer

   EN    FR    IT 

 










Légende :    VFR   VFR Marginal   IFR   IFR Intensif   IFR Très Intensif
Visi : 
Plafond : 
>= 8 km
>= 3000ft
5 à 8 km
1000 à 3000 ft
1500m à 5 km
500 à 1000 ft
800 à 1500m
200 à 500 ft
< 800m
< 200 ft
Symboles :   Orages  Brouillard  Fortes neiges  Fortes précipitations  Vent > 20 kt
SIGMETs :   Divers  Orages  Givrage  Turbulence  Onde Orograph.  Cendres Volcan.






- Altitude de l'aérodrome : 14 ft
- Code IATA : BRE


EDDW - Bremen Neuenland

DERNIER METAR :
  • 240120Z 29003KT 0200 R27/0600N FZFG BKN001 M02/M02 Q1025

METARs EXPIRÉS :
  • 240050Z 30004KT 0300 R27/1000D FZFG BKN001 M02/M02 Q1025
  • 240020Z 29005KT 0700 R27/1900N FZFG SCT001 M03/M03 Q1026
  • 232350Z 29003KT 0700 R27/1600D FZFG BKN001 M03/M04 Q1026
  • 232320Z 31004KT 6000 NSC M03/M03 Q1026
  • 232250Z 29002KT 5000 BR NSC M03/M03 Q1026

TAF COR TAF EDDW
Valide du 24 à 00h jusqu'au 25 à 00h UTC


232309Z 2400/2424 22005KT 6000 NSC
BECMG 2400/2404 0300 FZFG BKN001
TEMPO 2404/2406 2500 BR
BECMG 2406/2409 3000 BR BKN003
BECMG 2409/2412 6000 BKN007
PROB30
TEMPO 2412/2420 4500 -DZRA SCT008



MET'MAP, la Météo Aéronautique d'un coup d'oeil ! - Copyright ORBIFLY Décembre 2007 - Disclaimer

ORBIFLY MET'MAP TEAM :

Programmation & Développement : Alexandra Zaïnal
Sur une idée originale de : Baudouin d'Aumeries
Assistance à la programmation : Marc-Olivier Méhu
Soutien technique & logistique : Manuel Goepfert

Contact : metmap@orbifly.com




SOURCES & CREDITS :

   NOAA